Time;durP1;ratioP1;P1;durP2;ratioP2;P2;SDS_P1;SDS_P2;PMS_P1;PMS_P2;Temp;Humidity;BMP_temperature;BMP_pressure;BME280_temperature;BME280_humidity;BME280_pressure;Samples;Min_cycle;Max_cycle;Signal;HPM_P1;HPM_P2
2021/12/22 00:01:25;;;;;;;41.05;20.90;;;;;;;5.61;49.62;102758.94;4991854;28;20038;-61
2021/12/22 00:03:50;;;;;;;33.70;19.10;;;;;;;5.72;49.50;102754.66;4974323;28;20027;-63
2021/12/22 00:06:22;;;;;;;38.50;19.80;;;;;;;5.72;48.71;102755.47;4991499;28;20120;-62
2021/12/22 00:08:48;;;;;;;38.45;19.85;;;;;;;5.68;48.64;102753.41;4974296;28;20756;-65
2021/12/22 00:11:14;;;;;;;34.58;19.38;;;;;;;5.72;48.33;102762.81;4974644;28;20046;-61
2021/12/22 00:13:39;;;;;;;35.58;19.38;;;;;;;5.60;48.73;102746.41;4994798;28;20030;-61
2021/12/22 00:16:05;;;;;;;39.95;19.50;;;;;;;5.61;48.74;102746.16;4978553;28;20046;-65
2021/12/22 00:18:31;;;;;;;35.13;18.90;;;;;;;5.63;48.52;102749.50;4995539;28;20026;-61
2021/12/22 00:20:56;;;;;;;35.38;19.23;;;;;;;5.65;48.58;102735.66;4995198;28;20037;-61
2021/12/22 00:23:22;;;;;;;37.03;19.27;;;;;;;5.38;49.12;102729.63;4978106;28;20061;-64
2021/12/22 00:25:48;;;;;;;43.15;18.80;;;;;;;5.38;49.40;102725.00;4994971;28;20031;-62
2021/12/22 00:28:13;;;;;;;38.05;19.10;;;;;;;5.23;49.77;102724.50;4995479;28;20027;-62
2021/12/22 00:30:39;;;;;;;37.42;18.85;;;;;;;5.24;49.72;102724.28;4977727;28;20052;-64
2021/12/22 00:33:07;;;;;;;42.40;19.25;;;;;;;5.20;49.95;102724.94;4995161;28;20045;-61
2021/12/22 00:35:42;;;;;;;;;;;;;;;5.55;49.35;102728.00;4995658;28;20027;-62
2021/12/22 00:38:09;;;;;;;37.88;19.13;;;;;;;5.20;49.56;102714.91;4995352;28;20030;-62
2021/12/22 00:40:35;;;;;;;41.90;19.40;;;;;;;5.26;49.98;102724.91;4978200;28;20117;-62
2021/12/22 00:43:00;;;;;;;43.72;20.48;;;;;;;5.34;49.04;102731.13;4977727;28;20027;-61
2021/12/22 00:45:28;;;;;;;39.75;19.83;;;;;;;5.48;48.85;102731.84;4994987;28;20138;-63
2021/12/22 00:47:54;;;;;;;;;;;;;;;5.52;48.68;102720.28;4994961;28;20082;-61
2021/12/22 00:50:19;;;;;;;44.97;18.23;;;;;;;5.32;49.79;102725.91;4995049;28;20311;-63
2021/12/22 00:52:44;;;;;;;38.60;19.40;;;;;;;5.12;49.67;102722.50;4977394;28;20037;-62
2021/12/22 00:55:10;;;;;;;39.28;18.63;;;;;;;5.10;49.92;102722.72;4945985;28;20034;-61
2021/12/22 00:57:38;;;;;;;40.45;18.98;;;;;;;5.18;49.15;102727.06;4994710;28;20062;-61
2021/12/22 01:00:06;;;;;;;42.10;19.60;;;;;;;4.76;50.21;102732.97;4994435;28;20030;-63
2021/12/22 01:02:32;;;;;;;39.28;18.92;;;;;;;5.22;48.97;102725.56;4977577;28;20046;-62
2021/12/22 01:04:57;;;;;;;39.10;18.92;;;;;;;5.48;48.88;102729.13;4960985;28;20039;-63
2021/12/22 01:07:23;;;;;;;38.67;18.85;;;;;;;5.48;48.59;102735.38;4994678;28;20034;-61
2021/12/22 01:09:48;;;;;;;35.22;18.63;;;;;;;5.49;48.06;102737.06;4994154;28;20026;-62
2021/12/22 01:12:13;;;;;;;41.67;18.83;;;;;;;5.61;47.63;102729.81;4977473;28;20034;-60
2021/12/22 01:14:39;;;;;;;37.00;18.98;;;;;;;5.32;48.22;102741.41;4994549;28;20027;-64
2021/12/22 01:17:06;;;;;;;36.38;18.48;;;;;;;5.21;47.57;102740.22;4994214;28;20050;-63
2021/12/22 01:19:44;;;;;;;46.38;19.33;;;;;;;5.00;48.02;102742.22;4977417;28;20039;-62
2021/12/22 01:22:23;;;;;;;45.40;20.05;;;;;;;5.14;48.21;102744.84;4977211;28;20082;-61
2021/12/22 01:24:59;;;;;;;41.03;19.20;;;;;;;5.19;47.73;102735.00;4992704;28;20027;-60
2021/12/22 01:27:26;;;;;;;38.30;19.55;;;;;;;5.10;48.46;102739.03;4977076;28;20027;-60
2021/12/22 01:29:52;;;;;;;44.50;19.58;;;;;;;4.88;48.80;102742.09;4993646;28;20033;-62
2021/12/22 01:32:18;;;;;;;40.70;18.00;;;;;;;4.92;48.70;102737.06;4961254;28;20050;-63
2021/12/22 01:34:44;;;;;;;37.53;18.50;;;;;;;4.90;48.72;102745.44;4977091;28;20023;-61
2021/12/22 01:37:10;;;;;;;40.20;18.20;;;;;;;4.96;48.62;102743.72;4977005;28;20031;-61
2021/12/22 01:39:35;;;;;;;39.25;18.33;;;;;;;4.95;48.51;102741.22;4994025;28;20041;-62
2021/12/22 01:42:01;;;;;;;37.55;18.50;;;;;;;4.98;48.17;102730.75;4976559;28;20029;-62
2021/12/22 01:44:34;;;;;;;41.78;18.30;;;;;;;4.97;48.95;102733.69;4994003;28;20565;-61
2021/12/22 01:49:53;;;;;;;35.60;18.38;;;;;;;4.89;48.75;102726.63;4993516;28;20070;-62
2021/12/22 01:52:21;;;;;;;37.22;17.98;;;;;;;4.79;48.73;102724.38;4993852;28;20026;-63
2021/12/22 01:55:03;;;;;;;35.88;18.02;;;;;;;4.86;48.63;102722.44;4976725;28;20046;-60
2021/12/22 01:57:30;;;;;;;39.25;17.55;;;;;;;4.78;48.65;102720.00;4976546;28;20031;-64
2021/12/22 01:59:56;;;;;;;37.75;18.17;;;;;;;4.72;49.21;102716.28;4993366;28;20027;-63
2021/12/22 02:02:21;;;;;;;36.08;18.73;;;;;;;4.75;48.92;102714.16;4993516;28;20077;-63
2021/12/22 02:04:47;;;;;;;39.53;18.58;;;;;;;4.83;48.37;102714.72;4993566;28;20031;-63
2021/12/22 02:07:14;;;;;;;39.35;18.45;;;;;;;4.71;48.83;102719.22;4976146;28;20101;-62
2021/12/22 02:10:01;;;;;;;41.42;18.75;;;;;;;4.69;48.35;102710.44;4993574;28;20050;-63
2021/12/22 02:12:28;;;;;;;36.83;18.58;;;;;;;4.73;49.07;102722.53;4993410;28;20042;-62
2021/12/22 02:14:54;;;;;;;40.65;18.60;;;;;;;4.72;49.44;102721.72;4960763;28;20037;-62
2021/12/22 02:17:19;;;;;;;38.78;18.70;;;;;;;4.72;48.90;102721.72;4960207;28;20027;-62
2021/12/22 02:19:46;;;;;;;39.08;18.80;;;;;;;4.70;48.87;102720.25;4976237;28;20074;-61
2021/12/22 02:22:15;;;;;;;40.83;19.17;;;;;;;4.57;49.25;102717.63;4992794;28;20057;-61
2021/12/22 02:24:55;;;;;;;50.58;20.17;;;;;;;4.85;49.20;102722.66;4993087;28;20110;-62
2021/12/22 02:27:32;;;;;;;43.60;20.88;;;;;;;4.38;50.91;102733.78;4993054;28;20030;-63
2021/12/22 02:30:01;;;;;;;44.85;20.02;;;;;;;4.61;49.68;102730.53;4992833;28;20034;-60
2021/12/22 02:33:07;;;;;;;41.28;20.30;;;;;;;4.62;49.84;102725.94;4992982;28;20026;-61
2021/12/22 02:35:46;;;;;;;42.95;20.50;;;;;;;4.87;48.86;102728.75;4991824;28;20030;-62
2021/12/22 02:38:16;;;;;;;44.85;19.77;;;;;;;4.53;49.88;102741.66;4992500;28;20090;-62
2021/12/22 02:40:44;;;;;;;40.85;19.25;;;;;;;4.72;49.61;102737.16;4993019;28;20038;-61
2021/12/22 02:43:10;;;;;;;41.13;19.05;;;;;;;4.44;49.38;102743.78;4992503;28;20026;-61
2021/12/22 02:45:36;;;;;;;42.25;20.10;;;;;;;4.27;49.75;102739.88;4959952;28;20094;-61
2021/12/22 02:48:03;;;;;;;39.17;19.27;;;;;;;4.56;49.79;102734.97;4975284;28;20166;-61
2021/12/22 02:50:28;;;;;;;42.63;19.65;;;;;;;4.68;49.03;102746.81;4959867;28;20433;-61
2021/12/22 02:55:31;;;;;;;45.65;20.10;;;;;;;4.48;49.41;102742.28;4992675;28;20038;-63
2021/12/22 02:58:00;;;;;;;36.38;18.38;;;;;;;4.47;49.52;102751.50;4992633;28;20129;-61
2021/12/22 03:00:45;;;;;;;42.00;18.98;;;;;;;4.25;49.53;102741.97;4976214;28;20038;-62
2021/12/22 03:03:29;;;;;;;39.58;19.08;;;;;;;4.14;50.03;102740.75;4992199;28;20030;-61
2021/12/22 03:05:56;;;;;;;36.92;18.40;;;;;;;4.06;49.91;102735.56;4975501;28;20038;-60
2021/12/22 03:08:21;;;;;;;41.03;18.58;;;;;;;4.26;50.08;102738.19;4975298;28;20054;-62
2021/12/22 03:10:51;;;;;;;37.63;18.25;;;;;;;4.16;49.90;102739.47;4959340;28;20039;-61
2021/12/22 03:13:16;;;;;;;37.83;18.52;;;;;;;4.13;49.93;102745.34;4991894;28;20086;-63
2021/12/22 03:15:42;;;;;;;43.75;19.17;;;;;;;4.03;50.69;102739.53;4992483;28;20026;-64
2021/12/22 03:18:07;;;;;;;44.50;19.65;;;;;;;3.93;50.83;102728.25;4991847;28;20415;-62
2021/12/22 03:20:33;;;;;;;37.05;17.52;;;;;;;4.15;50.32;102726.97;4992370;28;20031;-63
2021/12/22 03:22:58;;;;;;;41.90;19.60;;;;;;;3.89;50.52;102732.47;4971897;29;20051;-62
2021/12/22 03:25:27;;;;;;;43.70;20.15;;;;;;;3.60;52.00;102724.56;4972275;29;20047;-61
2021/12/22 03:27:53;;;;;;;39.65;19.55;;;;;;;3.44;52.66;102725.00;4972909;28;20027;-61
2021/12/22 03:30:22;;;;;;;43.42;20.25;;;;;;;3.66;52.46;102722.91;4971606;29;20055;-61
2021/12/22 03:32:47;;;;;;;45.30;20.88;;;;;;;3.60;52.98;102718.31;4972845;28;20042;-65
2021/12/22 03:35:18;;;;;;;46.92;20.92;;;;;;;3.86;52.75;102724.75;4972410;29;20024;-61
2021/12/22 03:37:45;;;;;;;44.17;20.88;;;;;;;3.57;52.22;102725.00;4971829;29;20037;-62
2021/12/22 03:40:11;;;;;;;42.65;19.98;;;;;;;3.39;52.70;102722.91;4971427;29;20031;-62
2021/12/22 03:42:36;;;;;;;45.03;20.30;;;;;;;3.11;52.41;102719.56;4972597;29;20042;-60
2021/12/22 03:45:03;;;;;;;44.65;19.88;;;;;;;2.83;53.74;102724.13;4972793;29;20035;-61
2021/12/22 03:47:29;;;;;;;45.05;19.27;;;;;;;3.13;52.76;102722.91;4974544;28;20063;-61
2021/12/22 03:49:54;;;;;;;44.15;19.30;;;;;;;3.72;51.56;102719.34;4976711;29;20035;-60
2021/12/22 03:52:19;;;;;;;43.08;19.70;;;;;;;3.97;50.75;102707.81;4976360;29;20889;-61
2021/12/22 03:54:45;;;;;;;38.17;18.75;;;;;;;3.98;50.37;102712.19;4975638;29;20035;-63
2021/12/22 03:57:10;;;;;;;46.00;19.50;;;;;;;3.86;50.17;102703.03;4976193;28;20031;-62
2021/12/22 03:59:36;;;;;;;43.85;18.60;;;;;;;3.84;50.36;102707.84;4975504;29;20038;-61
2021/12/22 04:02:01;;;;;;;36.88;18.88;;;;;;;3.83;50.29;102700.75;4975611;29;20033;-61
2021/12/22 04:04:27;;;;;;;41.67;18.65;;;;;;;3.71;50.36;102708.72;4975776;29;20035;-63
2021/12/22 04:06:52;;;;;;;39.15;19.17;;;;;;;3.23;51.30;102709.75;4976780;28;20027;-62
2021/12/22 04:09:26;;;;;;;44.40;19.40;;;;;;;2.67;53.05;102705.50;4975171;29;20519;-63
2021/12/22 04:11:51;;;;;;;39.97;18.88;;;;;;;2.78;53.03;102706.81;4960573;29;20035;-61
2021/12/22 04:14:17;;;;;;;46.70;20.08;;;;;;;2.83;53.18;102704.31;4975735;29;20024;-61
2021/12/22 04:16:42;;;;;;;36.95;17.65;;;;;;;2.92;52.89;102703.06;4975353;29;20027;-62
2021/12/22 04:19:07;;;;;;;39.85;18.15;;;;;;;3.05;52.30;102699.53;4976168;28;20042;-62
2021/12/22 04:21:33;;;;;;;42.13;19.40;;;;;;;3.37;51.71;102692.47;4943101;29;20102;-62
2021/12/22 04:23:59;;;;;;;42.60;18.90;;;;;;;3.63;51.13;102690.78;4993698;28;20055;-62
2021/12/22 04:26:27;;;;;;;37.83;18.37;;;;;;;3.60;51.47;102686.59;4995000;28;20103;-61
2021/12/22 04:28:52;;;;;;;;;;;;;;;3.69;52.07;102684.50;4995597;28;20305;-61
2021/12/22 04:31:17;;;;;;;42.15;17.45;;;;;;;3.45;52.53;102678.69;4977935;28;19953;-62
2021/12/22 04:33:43;;;;;;;42.63;18.70;;;;;;;3.41;52.93;102680.16;4978080;28;20057;-60
2021/12/22 04:36:08;;;;;;;42.38;19.75;;;;;;;3.42;53.36;102679.13;4978198;28;20035;-60
2021/12/22 04:38:33;;;;;;;47.58;20.00;;;;;;;3.21;53.80;102676.63;4994584;28;20065;-61
2021/12/22 04:40:59;;;;;;;39.55;19.02;;;;;;;3.71;52.26;102678.88;4978084;28;20042;-64
2021/12/22 04:43:24;;;;;;;48.00;20.10;;;;;;;3.63;51.75;102679.94;4961613;28;20039;-62
2021/12/22 04:45:50;;;;;;;44.13;20.00;;;;;;;3.66;50.95;102678.66;4977967;28;20055;-61
2021/12/22 04:48:15;;;;;;;42.13;19.27;;;;;;;3.47;50.63;102669.50;4994641;28;20039;-60
2021/12/22 04:50:41;;;;;;;41.35;18.83;;;;;;;3.80;51.16;102670.28;4977760;28;20119;-63
2021/12/22 04:55:32;;;;;;;35.58;17.52;;;;;;;3.44;51.16;102671.59;4994439;28;20033;-62
2021/12/22 04:57:59;;;;;;;42.85;18.83;;;;;;;3.41;51.21;102669.31;4977227;28;20050;-61
2021/12/22 05:00:28;;;;;;;43.17;18.83;;;;;;;3.43;51.35;102658.25;4993630;28;20038;-62
2021/12/22 05:02:55;;;;;;;40.75;18.40;;;;;;;3.26;51.83;102663.25;4994766;28;20031;-62
2021/12/22 05:05:20;;;;;;;40.13;16.88;;;;;;;2.83;52.13;102672.66;4994262;28;20053;-60
2021/12/22 05:07:47;;;;;;;42.60;18.23;;;;;;;3.08;52.24;102670.13;4994668;28;20031;-64
2021/12/22 05:10:14;;;;;;;43.85;18.45;;;;;;;2.96;51.97;102657.44;4994466;28;20026;-62
2021/12/22 05:12:40;;;;;;;39.00;18.75;;;;;;;2.81;52.09;102658.44;4961133;28;20035;-60
2021/12/22 05:15:06;;;;;;;43.60;17.77;;;;;;;2.32;53.80;102652.31;4994389;28;20026;-63
2021/12/22 05:20:24;;;;;;;43.13;17.45;;;;;;;3.30;51.62;102650.16;4978291;28;20027;-61
2021/12/22 05:22:50;;;;;;;41.75;18.35;;;;;;;2.81;53.21;102644.91;4973731;29;20059;-61
2021/12/22 05:25:16;;;;;;;47.78;19.92;;;;;;;2.65;54.78;102656.16;4974990;29;20078;-62
2021/12/22 05:27:42;;;;;;;46.47;19.08;;;;;;;2.79;54.53;102662.44;4974460;29;20031;-63
2021/12/22 05:30:09;;;;;;;40.65;18.58;;;;;;;2.80;54.90;102661.38;4974059;29;20031;-62
2021/12/22 05:32:36;;;;;;;44.40;18.63;;;;;;;2.78;55.08;102650.75;4974193;29;20031;-60
2021/12/22 05:35:05;;;;;;;42.03;20.00;;;;;;;2.81;55.02;102649.50;4973898;29;20031;-63
2021/12/22 05:37:30;;;;;;;46.25;19.90;;;;;;;2.55;55.06;102659.25;4972912;29;20103;-61
2021/12/22 05:39:56;;;;;;;48.47;20.35;;;;;;;2.69;54.23;102657.41;4973677;29;20027;-61
2021/12/22 05:42:25;;;;;;;42.63;19.83;;;;;;;2.51;54.33;102650.72;4974241;28;20035;-61
2021/12/22 05:44:51;;;;;;;47.63;20.55;;;;;;;2.20;55.29;102664.75;4957787;29;20039;-61
2021/12/22 05:47:16;;;;;;;43.30;18.92;;;;;;;1.72;56.13;102664.72;4973608;29;20123;-62
2021/12/22 05:49:43;;;;;;;46.33;19.48;;;;;;;1.98;55.61;102656.75;4973019;29;20125;-64
2021/12/22 05:52:09;;;;;;;48.00;19.15;;;;;;;2.40;54.46;102659.41;4974661;28;20035;-61
2021/12/22 05:54:34;;;;;;;46.22;19.40;;;;;;;2.72;53.14;102657.84;4974076;29;20023;-62
2021/12/22 05:56:59;;;;;;;46.35;20.33;;;;;;;2.82;52.83;102654.72;4974386;28;20058;-63
2021/12/22 05:59:25;;;;;;;48.90;19.83;;;;;;;3.03;52.08;102653.69;4972926;29;20108;-61
2021/12/22 06:01:50;;;;;;;51.70;20.38;;;;;;;3.43;51.66;102650.13;4957154;29;20074;-62
2021/12/22 06:04:15;;;;;;;46.22;18.98;;;;;;;3.41;51.44;102658.47;4956966;29;20034;-61
2021/12/22 06:06:42;;;;;;;42.72;19.20;;;;;;;3.43;51.08;102664.50;4972904;29;20583;-63
2021/12/22 06:09:08;;;;;;;44.13;18.83;;;;;;;3.61;50.67;102660.31;4973218;29;20058;-62
2021/12/22 06:11:34;;;;;;;43.08;18.42;;;;;;;3.62;50.62;102661.97;4956497;29;20043;-63
2021/12/22 06:13:59;;;;;;;41.92;18.65;;;;;;;3.49;50.38;102659.31;4957332;29;20055;-63
2021/12/22 06:16:25;;;;;;;39.00;18.35;;;;;;;3.52;50.57;102656.16;4973038;29;20391;-63
2021/12/22 06:18:57;;;;;;;46.00;18.20;;;;;;;3.64;50.56;102649.03;4973754;29;20034;-60
2021/12/22 06:21:22;;;;;;;46.15;18.50;;;;;;;3.72;50.25;102650.69;4973955;28;20051;-60
2021/12/22 06:23:47;;;;;;;40.67;18.23;;;;;;;3.09;52.03;102652.03;4959636;28;20065;-61
2021/12/22 06:26:13;;;;;;;45.17;18.17;;;;;;;2.52;53.60;102646.13;4960201;28;20034;-62
2021/12/22 06:28:39;;;;;;;48.40;18.73;;;;;;;2.78;53.77;102650.75;4992795;28;20035;-62
2021/12/22 06:31:04;;;;;;;50.13;19.92;;;;;;;2.58;54.79;102645.31;4992983;28;20045;-61
2021/12/22 06:33:30;;;;;;;47.47;19.08;;;;;;;2.98;53.71;102642.63;4992763;28;20107;-61
2021/12/22 06:35:55;;;;;;;51.60;19.83;;;;;;;2.59;54.75;102640.72;4993077;28;20046;-62
2021/12/22 06:38:20;;;;;;;49.90;19.65;;;;;;;2.58;53.52;102637.19;4975898;28;20103;-60
2021/12/22 06:40:46;;;;;;;48.50;19.55;;;;;;;2.56;53.65;102647.38;4992550;28;20094;-61
2021/12/22 06:43:15;;;;;;;49.40;19.45;;;;;;;2.58;53.27;102652.56;4975682;28;20042;-61
2021/12/22 06:45:40;;;;;;;45.08;18.35;;;;;;;2.91;52.28;102644.50;4992298;28;20023;-62
2021/12/22 06:48:05;;;;;;;50.20;18.63;;;;;;;2.93;51.80;102650.56;4959572;28;20102;-62
2021/12/22 06:50:31;;;;;;;45.20;18.80;;;;;;;2.11;53.46;102657.84;4975448;28;20018;-61
2021/12/22 06:52:56;;;;;;;43.33;18.75;;;;;;;2.17;54.00;102660.59;4992750;28;20169;-61
2021/12/22 06:55:21;;;;;;;48.53;19.17;;;;;;;2.57;52.58;102645.50;4992490;28;20050;-61
2021/12/22 06:57:47;;;;;;;43.65;18.45;;;;;;;2.79;51.46;102657.00;4992087;28;20023;-60
2021/12/22 07:00:13;;;;;;;45.97;19.20;;;;;;;2.25;52.83;102651.47;4992542;28;20423;-61
2021/12/22 07:02:39;;;;;;;41.80;17.95;;;;;;;2.32;54.21;102652.31;4991881;28;20061;-63
2021/12/22 07:05:08;;;;;;;45.47;19.33;;;;;;;2.55;54.39;102656.53;4992272;28;20030;-60
2021/12/22 07:07:33;;;;;;;49.15;19.63;;;;;;;2.52;54.52;102648.84;4991977;28;20053;-61
2021/12/22 07:09:58;;;;;;;50.92;20.50;;;;;;;2.60;54.23;102654.06;4975256;28;20030;-63
2021/12/22 07:12:24;;;;;;;52.50;19.05;;;;;;;2.39;55.05;102655.03;4992269;28;20038;-62
2021/12/22 07:14:50;;;;;;;54.78;20.40;;;;;;;2.19;56.28;102652.25;4975125;28;20854;-61
2021/12/22 07:17:15;;;;;;;51.78;20.55;;;;;;;2.40;55.36;102642.34;4992220;28;20035;-62
2021/12/22 07:19:40;;;;;;;51.30;19.80;;;;;;;2.39;55.58;102643.38;4991920;28;20035;-61
2021/12/22 07:22:06;;;;;;;52.17;20.27;;;;;;;2.35;55.66;102645.66;4958336;28;20178;-63
2021/12/22 07:24:32;;;;;;;48.97;20.52;;;;;;;2.27;55.63;102637.72;4992074;28;20065;-63
2021/12/22 07:26:58;;;;;;;46.50;19.47;;;;;;;2.22;55.98;102632.91;4974605;28;20041;-61
2021/12/22 07:29:23;;;;;;;57.15;21.02;;;;;;;2.27;56.14;102633.13;4991998;28;20035;-63
2021/12/22 07:31:49;;;;;;;50.97;20.08;;;;;;;2.42;55.76;102634.84;4958635;28;20035;-61
2021/12/22 07:34:23;;;;;;;46.92;20.02;;;;;;;2.71;55.21;102629.06;4991768;28;20027;-61
2021/12/22 07:37:18;;;;;;;48.85;21.00;;;;;;;2.89;54.70;102627.63;4974026;28;20034;-61
2021/12/22 07:39:43;;;;;;;47.58;19.80;;;;;;;2.89;54.24;102620.31;4986722;28;20027;-62
2021/12/22 07:42:08;;;;;;;55.03;21.98;;;;;;;3.35;53.11;102625.94;4974486;28;20040;-60
2021/12/22 07:44:34;;;;;;;54.65;20.90;;;;;;;3.19;53.18;102621.78;4974620;28;20035;-62
2021/12/22 07:46:59;;;;;;;52.47;20.50;;;;;;;3.05;53.85;102619.09;4991499;28;20038;-61
2021/12/22 07:49:24;;;;;;;58.15;20.90;;;;;;;3.19;53.18;102625.31;4991830;28;20046;-62
2021/12/22 07:51:50;;;;;;;44.30;20.67;;;;;;;3.48;52.58;102628.63;4974603;28;20037;-63
2021/12/22 07:54:15;;;;;;;47.03;21.30;;;;;;;3.37;52.70;102635.53;4991413;28;20038;-60
2021/12/22 07:56:40;;;;;;;53.47;22.35;;;;;;;3.56;52.44;102635.69;4991006;28;20125;-62
2021/12/22 07:59:06;;;;;;;46.50;20.20;;;;;;;3.36;52.39;102636.56;4974563;28;20038;-62
2021/12/22 08:01:32;;;;;;;50.92;20.20;;;;;;;3.31;52.81;102643.66;4974534;28;20041;-61
2021/12/22 08:03:58;;;;;;;51.37;20.07;;;;;;;3.09;53.16;102642.00;4974003;28;20027;-61
2021/12/22 08:06:24;;;;;;;50.28;20.20;;;;;;;3.24;53.25;102639.06;4991174;28;20046;-62
2021/12/22 08:08:49;;;;;;;51.13;20.15;;;;;;;3.08;53.58;102644.94;4990682;28;20042;-62
2021/12/22 08:11:14;;;;;;;46.28;21.27;;;;;;;3.10;53.37;102648.25;4974139;28;20055;-62
2021/12/22 08:13:40;;;;;;;49.47;20.77;;;;;;;2.54;54.88;102647.59;4991185;28;20035;-64
2021/12/22 08:16:06;;;;;;;49.20;20.73;;;;;;;2.33;55.56;102647.75;4991039;28;20041;-61
2021/12/22 08:18:31;;;;;;;48.53;20.58;;;;;;;2.84;54.63;102655.34;4991339;28;20063;-58
2021/12/22 08:20:56;;;;;;;46.42;20.35;;;;;;;2.85;54.54;102648.06;4973723;28;20043;-63
2021/12/22 08:23:22;;;;;;;49.05;20.88;;;;;;;2.87;54.49;102643.25;4990890;28;20047;-61
2021/12/22 08:25:47;;;;;;;50.03;21.38;;;;;;;3.28;53.48;102639.50;4973549;28;20034;-62
2021/12/22 08:28:13;;;;;;;51.92;20.08;;;;;;;2.76;54.59;102638.47;4997545;28;20062;-62
2021/12/22 08:30:39;;;;;;;45.05;19.42;;;;;;;2.61;55.62;102642.19;5004494;28;20034;-60
2021/12/22 08:33:15;;;;;;;53.65;21.10;;;;;;;2.89;55.09;102630.34;5011301;28;20054;-59
2021/12/22 08:41:10;;;;;;;52.25;21.13;;;;;;;2.86;55.74;102634.31;4999014;28;20095;-61
2021/12/22 08:43:35;;;;;;;49.75;20.60;;;;;;;2.78;55.36;102639.91;5014443;28;20105;-63
2021/12/22 08:46:00;;;;;;;45.85;20.70;;;;;;;2.88;56.01;102623.25;4996737;28;20062;-62
2021/12/22 08:48:26;;;;;;;45.92;19.45;;;;;;;3.56;54.09;102620.28;4993448;28;20034;-63
2021/12/22 08:50:51;;;;;;;52.63;22.38;;;;;;;3.89;52.99;102623.94;4990848;28;20030;-62
2021/12/22 08:53:16;;;;;;;47.00;21.10;;;;;;;3.52;54.39;102629.03;4971401;28;20083;-60
2021/12/22 08:55:42;;;;;;;52.83;21.10;;;;;;;3.91;53.52;102622.66;4984631;28;20034;-62
2021/12/22 08:58:07;;;;;;;48.50;21.63;;;;;;;3.53;54.16;102625.28;5001624;28;20030;-62
2021/12/22 09:00:36;;;;;;;47.05;21.92;;;;;;;3.66;54.24;102624.41;5006523;28;20153;-61
2021/12/22 09:03:01;;;;;;;47.45;22.15;;;;;;;3.52;54.86;102618.19;5005826;28;20031;-61
2021/12/22 09:05:27;;;;;;;46.10;22.60;;;;;;;3.74;54.59;102616.88;5007672;28;20030;-60
2021/12/22 09:07:52;;;;;;;51.83;21.80;;;;;;;3.95;54.18;102623.06;5003234;28;20054;-62
2021/12/22 09:10:17;;;;;;;42.10;20.85;;;;;;;3.48;55.91;102633.22;4973147;28;20045;-62
2021/12/22 09:12:43;;;;;;;45.72;21.42;;;;;;;3.90;54.52;102631.03;5002372;28;20031;-60
2021/12/22 09:15:09;;;;;;;42.60;21.08;;;;;;;4.18;54.26;102628.81;4988622;28;20014;-61
2021/12/22 09:17:34;;;;;;;46.20;21.58;;;;;;;4.80;52.97;102640.97;5001342;28;20026;-64
2021/12/22 09:20:00;;;;;;;48.92;23.08;;;;;;;5.02;52.22;102634.09;4973277;28;20037;-61
2021/12/22 09:22:26;;;;;;;48.20;21.70;;;;;;;4.42;53.26;102639.13;5008946;28;20043;-63
2021/12/22 09:24:52;;;;;;;38.88;20.95;;;;;;;4.62;53.63;102628.16;5000943;28;20041;-63
2021/12/22 09:27:18;;;;;;;43.42;21.98;;;;;;;4.01;55.09;102630.34;4987082;28;20058;-63
2021/12/22 09:29:44;;;;;;;44.13;21.27;;;;;;;4.04;55.36;102626.34;4982526;28;20086;-60
2021/12/22 09:32:14;;;;;;;45.42;21.60;;;;;;;3.94;55.53;102627.66;4990480;28;20077;-60
2021/12/22 09:34:39;;;;;;;45.08;21.25;;;;;;;4.18;55.48;102617.97;5006921;28;20024;-62
2021/12/22 09:37:05;;;;;;;45.25;21.15;;;;;;;4.30;54.83;102617.28;5000474;28;20066;-64
2021/12/22 09:39:30;;;;;;;43.42;20.88;;;;;;;4.17;54.89;102627.13;4971417;28;20094;-62
2021/12/22 09:41:56;;;;;;;40.10;21.42;;;;;;;3.53;56.64;102631.56;4982113;28;20034;-61
2021/12/22 09:44:23;;;;;;;43.63;21.42;;;;;;;4.54;54.01;102623.81;4980267;28;20022;-63
2021/12/22 09:46:52;;;;;;;47.55;22.70;;;;;;;4.82;53.15;102628.84;4983936;28;20054;-62
2021/12/22 09:49:36;;;;;;;49.28;21.88;;;;;;;4.52;54.03;102629.44;4990051;28;20121;-62
2021/12/22 09:52:19;;;;;;;42.03;20.70;;;;;;;4.44;54.31;102620.72;4989761;28;20031;-63
2021/12/22 09:54:55;;;;;;;44.05;21.88;;;;;;;4.63;55.05;102625.22;4990173;28;20050;-62
2021/12/22 09:57:24;;;;;;;43.58;22.20;;;;;;;5.01;53.89;102624.31;4990056;28;20542;-61
2021/12/22 09:59:52;;;;;;;43.60;21.60;;;;;;;4.85;54.23;102625.69;5002389;28;20023;-61
2021/12/22 10:02:21;;;;;;;48.65;23.08;;;;;;;5.03;54.06;102615.91;5000128;28;20036;-63
2021/12/22 10:04:46;;;;;;;43.45;21.95;;;;;;;4.71;54.69;102616.78;5005278;28;20109;-61
2021/12/22 10:07:19;;;;;;;46.78;23.77;;;;;;;4.85;54.18;102612.09;4983752;28;20050;-63
2021/12/22 10:09:45;;;;;;;44.05;22.85;;;;;;;5.45;53.20;102618.84;5002501;28;20042;-63
2021/12/22 10:12:17;;;;;;;42.03;22.00;;;;;;;5.50;52.77;102616.28;4956661;28;20027;-61
2021/12/22 10:15:00;;;;;;;41.45;21.65;;;;;;;6.32;51.30;102605.06;5003858;28;20053;-61
2021/12/22 10:17:31;;;;;;;44.70;21.52;;;;;;;5.23;53.09;102616.56;4998623;28;20110;-62
2021/12/22 10:20:05;;;;;;;45.28;21.77;;;;;;;5.72;52.81;102613.13;4984308;28;20056;-64
2021/12/22 10:22:35;;;;;;;41.20;21.63;;;;;;;6.17;52.23;102613.66;4993347;28;20046;-63
2021/12/22 10:25:09;;;;;;;40.95;21.23;;;;;;;6.51;51.25;102605.00;5002976;28;20049;-62
2021/12/22 10:27:35;;;;;;;41.05;21.27;;;;;;;6.21;52.06;102602.31;5002967;28;20029;-61
2021/12/22 10:30:20;;;;;;;44.67;21.88;;;;;;;6.01;52.55;102613.44;5003831;28;20050;-64
2021/12/22 10:32:45;;;;;;;39.65;21.38;;;;;;;6.08;51.81;102608.75;5002569;28;20082;-61
2021/12/22 10:35:11;;;;;;;40.22;20.42;;;;;;;6.09;52.58;102610.41;4984407;28;20053;-63
2021/12/22 10:37:41;;;;;;;37.70;20.70;;;;;;;6.74;51.29;102600.66;4969550;28;20031;-64
2021/12/22 10:40:25;;;;;;;41.40;22.52;;;;;;;7.38;50.02;102603.53;4995943;28;20034;-61
2021/12/22 10:42:51;;;;;;;39.17;21.25;;;;;;;6.77;51.27;102602.94;4996108;28;20022;-62
2021/12/22 10:45:18;;;;;;;40.50;20.85;;;;;;;7.41;50.05;102608.53;4985484;28;20041;-63
2021/12/22 10:50:34;;;;;;;38.65;21.02;;;;;;;7.24;50.19;102594.78;4996509;28;20156;-62
2021/12/22 10:53:00;;;;;;;38.30;19.65;;;;;;;6.85;51.22;102591.69;4985303;28;20448;-63
2021/12/22 10:55:36;;;;;;;35.88;19.20;;;;;;;6.94;51.17;102593.00;4970972;28;20029;-60
2021/12/22 10:58:01;;;;;;;34.45;19.15;;;;;;;6.66;51.27;102589.03;5002385;28;20053;-63
2021/12/22 11:00:26;;;;;;;41.25;21.15;;;;;;;6.85;50.77;102580.78;5001578;28;20027;-64
2021/12/22 11:03:10;;;;;;;37.60;20.85;;;;;;;7.13;50.40;102587.44;4984608;28;20031;-61
2021/12/22 11:05:47;;;;;;;36.58;19.80;;;;;;;7.28;50.56;102576.03;4987456;28;20036;-62
2021/12/22 11:08:25;;;;;;;36.92;20.08;;;;;;;7.15;50.27;102577.13;4995867;28;20097;-62
2021/12/22 11:10:52;;;;;;;37.58;20.48;;;;;;;6.99;50.32;102574.03;4979945;28;20046;-62
2021/12/22 11:13:23;;;;;;;38.33;20.00;;;;;;;7.29;49.90;102569.53;5005422;28;20058;-63
2021/12/22 11:15:50;;;;;;;38.80;20.10;;;;;;;7.45;49.99;102566.06;4998902;28;20284;-62
2021/12/22 11:18:36;;;;;;;35.33;19.65;;;;;;;7.40;50.14;102555.03;4997368;28;20027;-64
2021/12/22 11:21:22;;;;;;;35.80;19.08;;;;;;;6.71;51.35;102548.28;5002690;28;20018;-61
2021/12/22 11:23:48;;;;;;;34.88;19.27;;;;;;;6.28;52.30;102549.41;4995712;28;20055;-64
2021/12/22 11:26:14;;;;;;;34.17;18.58;;;;;;;6.53;51.45;102542.94;5005754;28;20114;-65
2021/12/22 11:28:40;;;;;;;35.30;18.15;;;;;;;6.62;51.63;102535.25;4999735;28;20022;-62
2021/12/22 11:31:08;;;;;;;33.72;19.27;;;;;;;7.02;51.26;102529.09;5005703;28;20056;-63
2021/12/22 11:33:35;;;;;;;38.35;18.38;;;;;;;6.98;50.74;102536.91;4992309;28;20061;-63
2021/12/22 11:36:02;;;;;;;35.50;18.63;;;;;;;7.61;49.88;102532.53;4985354;28;20019;-63
2021/12/22 11:38:29;;;;;;;31.17;18.85;;;;;;;7.67;49.08;102528.03;5000613;28;20026;-62
2021/12/22 11:41:02;;;;;;;;;;;;;;;8.16;48.60;102520.22;4984473;28;20030;-63